createdAt,value
2018-12-05T00:02:10.750Z,1.90
2018-12-05T00:04:39.265Z,1.92
2018-12-05T00:07:07.772Z,1.90
2018-12-05T00:09:36.378Z,1.96
2018-12-05T00:12:04.897Z,1.88
2018-12-05T00:14:33.501Z,1.84
2018-12-05T00:17:01.988Z,1.80
2018-12-05T00:19:30.478Z,1.78
2018-12-05T00:21:58.976Z,1.69
2018-12-05T00:24:27.457Z,1.64
2018-12-05T00:26:55.995Z,1.65
2018-12-05T00:29:24.509Z,1.62
2018-12-05T00:31:53.056Z,1.62
2018-12-05T00:34:21.567Z,1.65
2018-12-05T00:36:50.201Z,1.66
2018-12-05T00:39:18.714Z,1.68
2018-12-05T00:41:47.269Z,1.69
2018-12-05T00:44:15.752Z,1.77
2018-12-05T00:46:44.284Z,1.75
2018-12-05T00:49:12.976Z,1.78
2018-12-05T00:51:41.475Z,1.78
2018-12-05T00:54:10.131Z,1.76
2018-12-05T00:56:38.684Z,1.81
2018-12-05T00:59:07.402Z,1.82
2018-12-05T01:01:36.208Z,1.89
2018-12-05T01:04:04.823Z,1.86
2018-12-05T01:06:33.413Z,1.88
2018-12-05T01:09:01.969Z,1.84
2018-12-05T01:11:30.489Z,1.86
2018-12-05T01:13:59.017Z,1.80
2018-12-05T01:16:27.539Z,1.87
2018-12-05T01:18:56.092Z,1.86
2018-12-05T01:21:24.561Z,1.87
2018-12-05T01:23:53.173Z,1.89
2018-12-05T01:26:21.861Z,1.96
2018-12-05T01:28:50.315Z,1.98
2018-12-05T01:31:18.822Z,2.00
2018-12-05T01:33:47.340Z,2.00
2018-12-05T01:36:15.900Z,2.01
2018-12-05T01:38:44.479Z,2.02
2018-12-05T01:41:13.018Z,2.06
2018-12-05T01:43:47.384Z,2.00
2018-12-05T01:46:16.023Z,1.99
2018-12-05T01:48:44.617Z,1.94
2018-12-05T01:51:13.277Z,1.92
2018-12-05T01:53:41.802Z,1.91
2018-12-05T01:56:10.314Z,1.92
2018-12-05T01:58:38.951Z,2.00
2018-12-05T02:01:08.357Z,1.97
2018-12-05T02:03:36.910Z,1.96
2018-12-05T02:06:05.565Z,1.97
2018-12-05T02:08:34.220Z,2.01
2018-12-05T02:11:02.744Z,1.93
2018-12-05T02:13:31.354Z,1.83
2018-12-05T02:15:59.823Z,1.80
2018-12-05T02:18:28.405Z,1.81
2018-12-05T02:20:56.986Z,1.80
2018-12-05T02:23:25.557Z,1.75
2018-12-05T02:25:54.092Z,1.71
2018-12-05T02:28:22.662Z,1.64
2018-12-05T02:30:51.160Z,1.59
2018-12-05T02:33:19.724Z,1.53
2018-12-05T02:35:48.251Z,1.63
2018-12-05T02:38:16.840Z,1.62
2018-12-05T02:40:45.548Z,1.58
2018-12-05T02:43:14.098Z,1.60
2018-12-05T02:45:42.654Z,1.61
2018-12-05T02:48:11.292Z,1.61
2018-12-05T02:50:39.794Z,1.61
2018-12-05T02:53:08.374Z,1.58
2018-12-05T02:55:36.963Z,1.57
2018-12-05T02:58:05.549Z,1.59
2018-12-05T03:00:40.250Z,1.64
2018-12-05T03:03:08.904Z,1.61
2018-12-05T03:05:37.642Z,1.59
2018-12-05T03:08:06.145Z,1.62
2018-12-05T03:10:34.733Z,1.60
2018-12-05T03:13:03.274Z,1.62
2018-12-05T03:15:31.758Z,1.57
2018-12-05T03:18:00.356Z,1.49
2018-12-05T03:20:28.971Z,1.51
2018-12-05T03:22:57.511Z,1.50
2018-12-05T03:25:26.013Z,1.42
2018-12-05T03:27:54.526Z,1.31
2018-12-05T03:30:23.069Z,1.29
2018-12-05T03:32:52.575Z,1.30
2018-12-05T03:35:25.364Z,1.38
2018-12-05T03:37:53.928Z,1.56
2018-12-05T03:40:22.510Z,1.51
2018-12-05T03:42:51.141Z,1.55
2018-12-05T03:45:19.916Z,1.53
2018-12-05T03:47:48.653Z,1.55
2018-12-05T03:50:17.160Z,1.54
2018-12-05T03:52:45.677Z,1.53
2018-12-05T03:55:14.153Z,1.56
2018-12-05T03:57:42.655Z,1.59
2018-12-05T04:00:11.294Z,1.62
2018-12-05T04:02:39.832Z,1.60
2018-12-05T04:05:08.510Z,1.56
2018-12-05T04:07:37.050Z,1.58
2018-12-05T04:10:05.874Z,1.58
2018-12-05T04:12:40.533Z,1.54
2018-12-05T04:15:05.480Z,1.58
2018-12-05T04:17:34.046Z,1.53
2018-12-05T04:20:02.540Z,1.62
2018-12-05T04:22:31.236Z,1.57
2018-12-05T04:24:59.763Z,1.51
2018-12-05T04:27:28.290Z,1.52
2018-12-05T04:29:56.838Z,1.52
2018-12-05T04:32:25.340Z,1.52
2018-12-05T04:34:53.906Z,1.52
2018-12-05T04:37:22.490Z,1.44
2018-12-05T04:39:51.057Z,1.33
2018-12-05T04:42:19.638Z,1.28
2018-12-05T04:44:48.113Z,1.18
2018-12-05T04:47:16.638Z,1.21
2018-12-05T04:49:45.226Z,1.24
2018-12-05T04:52:13.717Z,1.19
2018-12-05T04:54:42.273Z,1.10
2018-12-05T04:57:10.913Z,1.11
2018-12-05T04:59:39.435Z,1.09
2018-12-05T05:02:07.930Z,1.14
2018-12-05T05:04:36.479Z,1.19
2018-12-05T05:07:05.002Z,1.28
2018-12-05T05:09:33.534Z,1.35
2018-12-05T05:12:03.036Z,1.39
2018-12-05T05:14:31.531Z,1.40
2018-12-05T05:17:00.029Z,1.39
2018-12-05T05:19:28.692Z,1.35
2018-12-05T05:21:57.178Z,1.30
2018-12-05T05:24:25.669Z,1.33
2018-12-05T05:26:54.298Z,1.39
2018-12-05T05:29:22.893Z,1.48
2018-12-05T05:31:51.451Z,1.46
2018-12-05T05:34:19.927Z,1.54
2018-12-05T05:36:48.558Z,1.58
2018-12-05T05:39:17.008Z,1.65
2018-12-05T05:41:45.465Z,1.67
2018-12-05T05:44:13.948Z,1.69
2018-12-05T05:46:42.598Z,1.66
2018-12-05T05:49:11.144Z,1.68
2018-12-05T05:51:39.695Z,1.71
2018-12-05T05:54:08.294Z,1.64
2018-12-05T05:56:36.984Z,1.65
2018-12-05T05:59:05.476Z,1.67
2018-12-05T06:01:34.031Z,1.62
2018-12-05T06:04:02.505Z,1.64
2018-12-05T06:06:31.013Z,1.54
2018-12-05T06:08:59.651Z,1.54
2018-12-05T06:11:28.132Z,1.52
2018-12-05T06:13:56.624Z,1.45
2018-12-05T06:16:25.110Z,1.39
2018-12-05T06:18:53.578Z,1.40
2018-12-05T06:21:22.100Z,1.30
2018-12-05T06:23:50.540Z,1.13
2018-12-05T06:26:19.028Z,1.06
2018-12-05T06:28:47.566Z,1.09
2018-12-05T06:31:16.176Z,1.05
2018-12-05T06:33:44.736Z,0.99
2018-12-05T06:36:13.191Z,1.07
2018-12-05T06:38:41.751Z,0.99
2018-12-05T06:41:10.269Z,0.82
2018-12-05T06:43:38.698Z,0.85
2018-12-05T06:46:07.348Z,0.82
2018-12-05T06:48:35.825Z,0.83
2018-12-05T06:51:04.435Z,0.90
2018-12-05T06:53:32.988Z,0.98
2018-12-05T06:56:01.492Z,1.00
2018-12-05T06:58:30.013Z,1.10
2018-12-05T07:00:58.486Z,1.23
2018-12-05T07:03:26.929Z,1.20
2018-12-05T07:05:55.576Z,1.16
2018-12-05T07:08:24.097Z,1.05
2018-12-05T07:10:52.550Z,1.00
2018-12-05T07:13:21.139Z,1.05
2018-12-05T07:15:49.695Z,1.12
2018-12-05T07:18:18.212Z,1.12
2018-12-05T07:20:46.701Z,1.04
2018-12-05T07:23:15.182Z,1.07
2018-12-05T07:25:43.677Z,1.09
2018-12-05T07:28:12.176Z,1.08
2018-12-05T07:30:40.684Z,1.05
2018-12-05T07:33:09.141Z,1.08
2018-12-05T07:35:37.701Z,1.11
2018-12-05T07:38:06.161Z,1.11
2018-12-05T07:40:34.627Z,1.16
2018-12-05T07:43:03.308Z,1.34
2018-12-05T07:45:31.912Z,1.29
2018-12-05T07:48:00.393Z,1.34
2018-12-05T07:50:28.983Z,1.43
2018-12-05T07:52:57.484Z,1.29
2018-12-05T07:55:25.960Z,1.23
2018-12-05T07:57:54.520Z,1.21
2018-12-05T08:00:23.054Z,1.13
2018-12-05T08:02:51.521Z,1.12
2018-12-05T08:05:20.054Z,1.30
2018-12-05T08:07:48.627Z,1.18
2018-12-05T08:10:17.111Z,1.08
2018-12-05T08:12:45.652Z,1.03
2018-12-05T08:15:14.162Z,1.07
2018-12-05T08:17:42.706Z,1.25
2018-12-05T08:20:11.207Z,1.30
2018-12-05T08:22:39.703Z,1.26
2018-12-05T08:25:08.549Z,1.31
2018-12-05T08:27:37.052Z,1.37
2018-12-05T08:30:05.927Z,1.39
2018-12-05T08:32:34.388Z,1.41
2018-12-05T08:35:02.935Z,1.42
2018-12-05T08:37:31.489Z,1.51
2018-12-05T08:40:00.053Z,1.48
2018-12-05T08:42:28.600Z,1.58
2018-12-05T08:45:03.713Z,1.48
2018-12-05T08:47:33.899Z,1.41
2018-12-05T08:50:02.527Z,1.42
2018-12-05T08:52:31.153Z,1.43
2018-12-05T08:54:59.593Z,1.42
2018-12-05T08:57:28.135Z,1.50
2018-12-05T08:59:56.708Z,1.58
2018-12-05T09:02:25.240Z,1.61
2018-12-05T09:04:53.720Z,1.67
2018-12-05T09:07:22.257Z,1.71
2018-12-05T09:09:50.764Z,1.79
2018-12-05T09:12:19.239Z,1.86
2018-12-05T09:14:47.743Z,1.88
2018-12-05T09:17:16.235Z,1.88
2018-12-05T09:19:44.703Z,1.90
2018-12-05T09:22:13.153Z,1.88
2018-12-05T09:24:41.681Z,1.85
2018-12-05T09:27:10.157Z,1.90
2018-12-05T09:29:38.688Z,1.92
2018-12-05T09:32:07.131Z,1.86
2018-12-05T09:34:35.721Z,1.91
2018-12-05T09:37:04.200Z,1.90
2018-12-05T09:39:32.703Z,1.94
2018-12-05T09:42:01.368Z,1.97
2018-12-05T09:44:29.819Z,2.02
2018-12-05T09:46:58.319Z,2.15
2018-12-05T09:49:26.883Z,2.29
2018-12-05T09:51:55.424Z,2.36
2018-12-05T09:54:23.925Z,2.46
2018-12-05T09:56:52.592Z,2.52
2018-12-05T09:59:21.189Z,2.67
2018-12-05T10:01:49.636Z,2.65
2018-12-05T10:04:18.135Z,2.75
2018-12-05T10:06:46.619Z,2.76
2018-12-05T10:09:15.112Z,2.94
2018-12-05T10:11:43.743Z,2.96
2018-12-05T10:14:15.232Z,2.94
2018-12-05T10:16:43.696Z,3.02
2018-12-05T10:19:12.231Z,2.99
2018-12-05T10:21:40.826Z,2.96
2018-12-05T10:24:09.303Z,3.02
2018-12-05T10:26:37.935Z,3.04
2018-12-05T10:29:06.432Z,3.09
2018-12-05T10:31:35.002Z,3.08
2018-12-05T10:34:03.585Z,3.08
2018-12-05T10:36:32.071Z,3.01
2018-12-05T10:39:00.615Z,3.05
2018-12-05T10:41:29.138Z,3.19
2018-12-05T10:43:57.612Z,3.13
2018-12-05T10:46:26.160Z,3.19
2018-12-05T10:48:54.656Z,3.28
2018-12-05T10:51:23.136Z,3.42
2018-12-05T10:53:51.611Z,3.43
2018-12-05T10:56:20.318Z,3.55
2018-12-05T10:58:48.767Z,3.52
2018-12-05T11:01:22.590Z,3.63
2018-12-05T11:03:51.082Z,3.78
2018-12-05T11:06:24.579Z,3.96
2018-12-05T11:11:04.097Z,4.03
2018-12-05T11:13:37.750Z,4.17
2018-12-05T11:16:11.474Z,4.30
2018-12-05T11:18:45.260Z,4.18
2018-12-05T11:21:18.834Z,4.19
2018-12-05T11:23:57.402Z,4.23
2018-12-05T11:26:27.161Z,4.22
2018-12-05T11:28:55.681Z,4.25
2018-12-05T11:31:24.187Z,4.19
2018-12-05T11:33:52.842Z,4.17
2018-12-05T11:36:21.297Z,4.18
2018-12-05T11:38:49.785Z,4.10
2018-12-05T11:41:18.324Z,4.20
2018-12-05T11:43:46.836Z,4.11
2018-12-05T11:46:15.456Z,4.11
2018-12-05T11:48:43.950Z,4.15
2018-12-05T11:51:12.449Z,4.24
2018-12-05T11:53:41.032Z,4.35
2018-12-05T11:56:09.639Z,4.49
2018-12-05T11:58:38.144Z,4.56
2018-12-05T12:01:06.823Z,4.51
2018-12-05T12:03:35.463Z,4.56
2018-12-05T12:06:03.993Z,4.62
2018-12-05T12:08:33.068Z,4.61
2018-12-05T12:11:03.693Z,4.70
2018-12-05T12:13:32.194Z,4.71
2018-12-05T12:16:00.977Z,4.75
2018-12-05T12:18:29.624Z,4.82
2018-12-05T12:20:58.119Z,4.88
2018-12-05T12:23:26.783Z,4.92
2018-12-05T12:25:55.318Z,4.82
2018-12-05T12:28:23.790Z,4.87
2018-12-05T12:30:52.283Z,4.84
2018-12-05T12:33:20.932Z,4.90
2018-12-05T12:35:49.481Z,4.98
2018-12-05T12:38:17.921Z,4.96
2018-12-05T12:40:46.494Z,4.89
2018-12-05T12:43:15.002Z,4.87
2018-12-05T12:45:43.598Z,4.96
2018-12-05T12:48:12.025Z,4.84
2018-12-05T12:50:40.584Z,4.85
2018-12-05T12:53:09.133Z,4.84
2018-12-05T12:55:37.715Z,4.80
2018-12-05T12:58:06.239Z,4.93
2018-12-05T13:00:34.684Z,5.03
2018-12-05T13:03:03.292Z,5.04
2018-12-05T13:05:31.743Z,5.09
2018-12-05T13:08:00.245Z,5.21
2018-12-05T13:10:28.729Z,5.25
2018-12-05T13:12:57.302Z,5.04
2018-12-05T13:15:25.845Z,5.08
2018-12-05T13:17:54.312Z,5.20
2018-12-05T13:20:22.824Z,5.22
2018-12-05T13:22:51.355Z,5.03
2018-12-05T13:25:20.000Z,4.91
2018-12-05T13:27:48.497Z,4.90
2018-12-05T13:30:17.008Z,4.81
2018-12-05T13:32:45.556Z,4.94
2018-12-05T13:35:14.226Z,4.82
2018-12-05T13:37:42.945Z,4.78
2018-12-05T13:40:11.565Z,4.73
2018-12-05T13:42:40.140Z,4.69
2018-12-05T13:45:08.817Z,4.69
2018-12-05T13:47:37.297Z,4.72
2018-12-05T13:50:06.485Z,4.74
2018-12-05T13:52:35.051Z,4.82
2018-12-05T13:55:03.553Z,4.84
2018-12-05T13:57:32.310Z,4.79
2018-12-05T14:00:00.853Z,4.99
2018-12-05T14:02:29.442Z,4.82
2018-12-05T14:04:57.969Z,4.82
2018-12-05T14:07:26.463Z,4.80
2018-12-05T14:09:54.957Z,4.80
2018-12-05T14:12:27.680Z,4.79
2018-12-05T14:14:56.325Z,4.75
2018-12-05T14:17:24.851Z,4.79
2018-12-05T14:19:53.388Z,4.79
2018-12-05T14:22:21.855Z,4.83
2018-12-05T14:24:50.357Z,4.79
2018-12-05T14:27:18.897Z,4.82
2018-12-05T14:29:47.429Z,4.77
2018-12-05T14:32:15.949Z,4.75
2018-12-05T14:34:44.512Z,4.87
2018-12-05T14:37:13.001Z,4.90
2018-12-05T14:39:41.528Z,4.77
2018-12-05T14:42:10.009Z,4.80
2018-12-05T14:44:38.576Z,4.80
2018-12-05T14:47:07.257Z,4.82
2018-12-05T14:49:35.799Z,4.75
2018-12-05T14:52:04.420Z,4.74
2018-12-05T14:54:32.898Z,4.78
2018-12-05T14:57:01.414Z,4.79
2018-12-05T14:59:29.928Z,4.78
2018-12-05T15:01:58.402Z,4.80
2018-12-05T15:04:26.932Z,4.78
2018-12-05T15:06:55.423Z,4.80
2018-12-05T15:09:23.933Z,4.84
2018-12-05T15:11:52.516Z,4.99
2018-12-05T15:14:21.167Z,4.90
2018-12-05T15:16:49.620Z,4.87
2018-12-05T15:19:18.271Z,4.82
2018-12-05T15:21:46.758Z,4.84
2018-12-05T15:24:15.311Z,4.80
2018-12-05T15:26:43.845Z,4.83
2018-12-05T15:29:12.517Z,4.87
2018-12-05T15:31:41.090Z,4.93
2018-12-05T15:34:09.611Z,4.91
2018-12-05T15:36:38.100Z,4.92
2018-12-05T15:39:07.979Z,4.94
2018-12-05T15:41:36.595Z,4.96
2018-12-05T15:44:05.124Z,4.90
2018-12-05T15:46:33.584Z,4.94
2018-12-05T15:49:02.098Z,4.98
2018-12-05T15:51:30.584Z,4.97
2018-12-05T15:53:59.836Z,4.96
2018-12-05T15:56:28.417Z,4.98
2018-12-05T15:58:57.560Z,5.00
2018-12-05T16:01:26.403Z,4.99
2018-12-05T16:03:55.106Z,5.06
2018-12-05T16:06:23.648Z,5.09
2018-12-05T16:08:53.037Z,5.08
2018-12-05T16:11:21.628Z,5.03
2018-12-05T16:13:50.833Z,5.08
2018-12-05T16:16:19.513Z,5.13
2018-12-05T16:18:48.066Z,5.08
2018-12-05T16:21:16.683Z,5.13
2018-12-05T16:23:45.183Z,5.13
2018-12-05T16:26:13.846Z,5.15
2018-12-05T16:28:42.553Z,5.13
2018-12-05T16:31:11.093Z,5.14
2018-12-05T16:33:39.665Z,5.19
2018-12-05T16:36:11.242Z,5.24
2018-12-05T16:38:38.797Z,5.22
2018-12-05T16:41:07.463Z,5.20
2018-12-05T16:43:36.007Z,5.21
2018-12-05T16:46:04.508Z,5.20
2018-12-05T16:48:33.048Z,5.26
2018-12-05T16:51:01.666Z,5.31
2018-12-05T16:53:30.264Z,5.33
2018-12-05T16:55:58.725Z,5.35
2018-12-05T16:58:27.284Z,5.36
2018-12-05T17:00:55.965Z,5.40
2018-12-05T17:03:24.446Z,5.42
2018-12-05T17:05:52.934Z,5.47
2018-12-05T17:08:21.445Z,5.41
2018-12-05T17:10:50.009Z,5.46
2018-12-05T17:13:18.487Z,5.44
2018-12-05T17:15:47.031Z,5.49
2018-12-05T17:18:15.587Z,5.47
2018-12-05T17:20:44.040Z,5.52
2018-12-05T17:23:12.628Z,5.51
2018-12-05T17:25:41.084Z,5.51
2018-12-05T17:28:09.604Z,5.60
2018-12-05T17:30:38.116Z,5.58
2018-12-05T17:33:06.660Z,5.58
2018-12-05T17:35:35.233Z,5.61
2018-12-05T17:38:03.727Z,5.69
2018-12-05T17:40:32.224Z,5.70
2018-12-05T17:43:00.708Z,5.73
2018-12-05T17:45:29.195Z,5.79
2018-12-05T17:47:57.661Z,5.76
2018-12-05T17:50:26.264Z,5.73
2018-12-05T17:52:54.821Z,5.74
2018-12-05T17:55:23.388Z,5.78
2018-12-05T17:57:52.006Z,5.82
2018-12-05T18:00:20.662Z,5.85
2018-12-05T18:02:49.133Z,5.86
2018-12-05T18:05:17.795Z,5.85
2018-12-05T18:07:46.398Z,5.87
2018-12-05T18:10:14.976Z,5.90
2018-12-05T18:12:43.457Z,5.95
2018-12-05T18:15:12.131Z,5.94
2018-12-05T18:17:40.641Z,5.92
2018-12-05T18:20:11.596Z,5.87
2018-12-05T18:22:40.170Z,5.92
2018-12-05T18:25:08.749Z,5.91
2018-12-05T18:27:37.228Z,5.93
2018-12-05T18:30:07.233Z,5.92
2018-12-05T18:32:35.691Z,5.97
2018-12-05T18:35:04.342Z,6.03
2018-12-05T18:37:32.812Z,6.05
2018-12-05T18:40:01.426Z,6.03
2018-12-05T18:42:29.973Z,6.03
2018-12-05T18:44:58.476Z,6.08
2018-12-05T18:47:27.118Z,6.06
2018-12-05T18:49:55.610Z,6.08
2018-12-05T18:52:24.401Z,6.14
2018-12-05T18:54:53.135Z,6.14
2018-12-05T18:57:21.660Z,6.18
2018-12-05T18:59:50.142Z,6.15
2018-12-05T19:02:18.671Z,6.16
2018-12-05T19:04:47.332Z,6.16
2018-12-05T19:07:16.074Z,6.16
2018-12-05T19:09:44.576Z,6.20
2018-12-05T19:12:13.220Z,6.21
2018-12-05T19:14:46.235Z,6.27
2018-12-05T19:17:15.087Z,6.24
2018-12-05T19:19:43.835Z,6.20
2018-12-05T19:22:12.354Z,6.26
2018-12-05T19:24:41.095Z,6.22
2018-12-05T19:27:09.613Z,6.18
2018-12-05T19:29:38.344Z,6.14
2018-12-05T19:32:06.949Z,6.12
2018-12-05T19:34:35.509Z,6.14
2018-12-05T19:37:04.145Z,6.17
2018-12-05T19:39:32.616Z,6.16
2018-12-05T19:42:01.104Z,6.18
2018-12-05T19:44:29.816Z,6.14
2018-12-05T19:46:58.299Z,6.15
2018-12-05T19:49:26.873Z,6.14
2018-12-05T19:51:55.564Z,6.17
2018-12-05T19:54:24.178Z,6.19
2018-12-05T19:56:52.703Z,6.22
2018-12-05T19:59:21.693Z,6.24
2018-12-05T20:01:50.219Z,6.26
2018-12-05T20:04:18.950Z,6.28
2018-12-05T20:06:47.424Z,6.29
2018-12-05T20:09:15.907Z,6.29
2018-12-05T20:11:44.368Z,6.34
2018-12-05T20:17:01.090Z,6.36
2018-12-05T20:19:29.762Z,6.34
2018-12-05T20:21:58.636Z,6.32
2018-12-05T20:24:27.135Z,6.35
2018-12-05T20:26:55.761Z,6.35
2018-12-05T20:29:24.464Z,6.41
2018-12-05T20:31:53.781Z,6.41
2018-12-05T20:34:22.610Z,6.41
2018-12-05T20:36:51.181Z,6.39
2018-12-05T20:39:25.944Z,6.46
2018-12-05T20:41:52.577Z,6.38
2018-12-05T20:44:21.092Z,6.36
2018-12-05T20:46:49.624Z,6.34
2018-12-05T20:49:18.123Z,6.42
2018-12-05T20:51:46.628Z,6.44
2018-12-05T20:54:15.143Z,6.42
2018-12-05T20:56:43.693Z,6.46
2018-12-05T20:59:12.155Z,6.46
2018-12-05T21:01:40.876Z,6.50
2018-12-05T21:04:09.424Z,6.45
2018-12-05T21:06:37.908Z,6.39
2018-12-05T21:09:08.823Z,6.34
2018-12-05T21:11:39.328Z,6.33
2018-12-05T21:14:08.945Z,6.32
2018-12-05T21:16:37.611Z,6.38
2018-12-05T21:19:06.265Z,6.44
2018-12-05T21:21:34.775Z,6.35
2018-12-05T21:24:03.306Z,6.42
2018-12-05T21:26:31.820Z,6.42
2018-12-05T21:29:00.453Z,6.45
2018-12-05T21:31:29.009Z,6.46
2018-12-05T21:33:57.474Z,6.49
2018-12-05T21:36:25.975Z,6.41
2018-12-05T21:38:54.432Z,6.57
2018-12-05T21:41:22.921Z,6.61
2018-12-05T21:43:51.440Z,6.61
2018-12-05T21:46:20.143Z,6.63
2018-12-05T21:48:48.613Z,6.62
2018-12-05T21:51:17.140Z,6.63
2018-12-05T21:53:45.632Z,6.67
2018-12-05T21:56:14.147Z,6.68
2018-12-05T21:58:42.676Z,6.74
2018-12-05T22:01:11.147Z,6.72
2018-12-05T22:03:39.689Z,6.68
2018-12-05T22:06:08.202Z,6.71
2018-12-05T22:08:36.720Z,6.73
2018-12-05T22:11:05.316Z,6.73
2018-12-05T22:13:33.937Z,6.75
2018-12-05T22:16:02.391Z,6.77
2018-12-05T22:18:30.872Z,6.81
2018-12-05T22:20:59.418Z,6.82
2018-12-05T22:23:28.629Z,6.84
2018-12-05T22:25:57.181Z,6.85
2018-12-05T22:28:25.747Z,6.83
2018-12-05T22:30:54.245Z,6.93
2018-12-05T22:33:22.777Z,6.97
2018-12-05T22:35:51.306Z,6.92
2018-12-05T22:38:20.435Z,6.94
2018-12-05T22:40:49.009Z,6.92
2018-12-05T22:43:17.492Z,6.97
2018-12-05T22:45:46.006Z,7.02
2018-12-05T22:48:14.545Z,7.05
2018-12-05T22:50:43.088Z,7.05
2018-12-05T22:53:11.966Z,7.00
2018-12-05T22:55:41.177Z,7.02
2018-12-05T22:58:09.656Z,7.06
2018-12-05T23:00:38.320Z,7.06
2018-12-05T23:03:06.828Z,7.08
2018-12-05T23:05:35.413Z,7.05
2018-12-05T23:08:03.955Z,7.08
2018-12-05T23:10:32.779Z,7.06
2018-12-05T23:13:01.235Z,7.05
2018-12-05T23:15:29.724Z,7.04
2018-12-05T23:17:58.261Z,7.04
2018-12-05T23:20:26.737Z,7.13
2018-12-05T23:22:55.273Z,7.10
2018-12-05T23:25:23.820Z,7.13
2018-12-05T23:27:52.279Z,7.04
2018-12-05T23:30:20.884Z,7.11
2018-12-05T23:32:49.508Z,7.09
2018-12-05T23:35:17.996Z,7.05
2018-12-05T23:37:46.483Z,7.10
2018-12-05T23:40:15.092Z,7.20
2018-12-05T23:42:44.317Z,7.18
2018-12-05T23:45:12.898Z,7.17
2018-12-05T23:47:42.048Z,7.21
2018-12-05T23:50:10.570Z,7.15
2018-12-05T23:52:39.056Z,7.17
2018-12-05T23:55:08.404Z,7.21
2018-12-05T23:57:36.895Z,7.21
